Vancouver, Washington
Current Conditions -  °F | °C
As of 2:53 AM on Friday 28 Nov 2014 (Local Time) from KVUO Reporting Station
Overcast Overcast  
Wind Chill: 13°   Ceiling: 1400
Heat Index: 13°   Visibility: 10mi
Dew Point:   Wind: 6mph
Humidity: 80%   Direction: NA
Pressure: 29.75"   Gusts: NA
Location:  45.63°N, 122.67°W
Report Text: KVUO 281053Z AUTO VRB05KT 10SM OVC014 13/09 A2975 RMK AO2 SLP075 T01280094
Loading
Personal Weather Stations






























Interactive Weather Map New forecast layout! Learn more

10-Day Weather Forecast

Advertisements
Track Severe Weather on mobile